Time;durP1;ratioP1;P1;durP2;ratioP2;P2;SDS_P1;SDS_P2;PMS_P1;PMS_P2;Temp;Humidity;BMP_temperature;BMP_pressure;BME280_temperature;BME280_humidity;BME280_pressure;Samples;Min_cycle;Max_cycle;Signal;HPM_P1;HPM_P2
2023/08/31 00:02:24;;;;;;;5.88;1.90;;;;;;;;;;5090507;28;20048;-72
2023/08/31 00:04:53;;;;;;;5.25;1.65;;;;;;;;;;5089110;28;20076;-71
2023/08/31 00:07:19;;;;;;;4.38;1.65;;;;;;;;;;5092803;28;20044;-71
2023/08/31 00:09:45;;;;;;;6.80;1.98;;;;;;;;;;5075684;28;20043;-71
2023/08/31 00:12:11;;;;;;;6.80;2.00;;;;;;;;;;5091968;28;20056;-71
2023/08/31 00:14:38;;;;;;;10.40;2.20;;;;;;;;;;5071149;28;20101;-71
2023/08/31 00:17:05;;;;;;;10.30;2.40;;;;;;;;;;5091431;28;20495;-72
2023/08/31 00:19:31;;;;;;;7.10;2.17;;;;;;;;;;5091076;28;20485;-71
2023/08/31 00:21:57;;;;;;;6.22;1.73;;;;;;;;;;5091176;28;20047;-71
2023/08/31 00:24:28;;;;;;;3.67;1.80;;;;;;;;;;5090618;28;20090;-72
2023/08/31 00:26:54;;;;;;;8.35;2.10;;;;;;;;;;5088918;28;20463;-71
2023/08/31 00:29:20;;;;;;;6.22;2.17;;;;;;;;;;5090215;28;20071;-71
2023/08/31 00:31:51;;;;;;;6.65;2.00;;;;;;;;;;5071443;28;20047;-72
2023/08/31 00:34:17;;;;;;;3.47;1.80;;;;;;;;;;5090972;28;20044;-72
2023/08/31 00:36:43;;;;;;;8.80;2.08;;;;;;;;;;5090057;28;20047;-72
2023/08/31 00:39:10;;;;;;;5.85;1.80;;;;;;;;;;5073886;28;20494;-71
2023/08/31 00:41:36;;;;;;;7.35;2.10;;;;;;;;;;5093832;28;20122;-72
2023/08/31 00:44:04;;;;;;;6.20;2.15;;;;;;;;;;5091211;28;20536;-72
2023/08/31 00:46:31;;;;;;;6.97;1.95;;;;;;;;;;5090614;28;20075;-72
2023/08/31 00:48:57;;;;;;;6.68;1.90;;;;;;;;;;5089348;28;20044;-72
2023/08/31 00:51:24;;;;;;;4.45;2.00;;;;;;;;;;5087099;28;20101;-72
2023/08/31 00:53:54;;;;;;;8.90;2.17;;;;;;;;;;5090031;28;20453;-72
2023/08/31 00:56:20;;;;;;;3.67;1.50;;;;;;;;;;5073030;28;20056;-72
2023/08/31 00:58:47;;;;;;;5.60;1.70;;;;;;;;;;5074921;28;20043;-72
2023/08/31 01:01:28;;;;;;;4.78;1.45;;;;;;;;;;5089341;28;20044;-71
2023/08/31 01:03:58;;;;;;;6.07;1.60;;;;;;;;;;5089162;28;20044;-72
2023/08/31 01:06:36;;;;;;;5.38;1.58;;;;;;;;;;5071400;28;20076;-71
2023/08/31 01:09:08;;;;;;;4.30;1.50;;;;;;;;;;5062429;28;20040;-71
2023/08/31 01:11:37;;;;;;;4.43;1.67;;;;;;;;;;5089218;28;20045;-72
2023/08/31 01:14:08;;;;;;;5.70;1.70;;;;;;;;;;5095163;28;20040;-72
2023/08/31 01:16:34;;;;;;;7.00;1.77;;;;;;;;;;5089660;28;20048;-72
2023/08/31 01:19:01;;;;;;;4.25;1.58;;;;;;;;;;5087783;28;20055;-71
2023/08/31 01:21:37;;;;;;;4.75;1.40;;;;;;;;;;5089826;28;20041;-72
2023/08/31 01:24:04;;;;;;;7.18;1.80;;;;;;;;;;5091330;28;20521;-71
2023/08/31 01:26:30;;;;;;;5.47;1.70;;;;;;;;;;5090216;28;20068;-72
2023/08/31 01:28:56;;;;;;;2.45;1.50;;;;;;;;;;5088692;28;20127;-72
2023/08/31 01:31:23;;;;;;;5.10;1.40;;;;;;;;;;5089685;28;20075;-72
2023/08/31 01:33:49;;;;;;;3.28;1.52;;;;;;;;;;5091365;28;20078;-72
2023/08/31 01:36:21;;;;;;;7.65;1.65;;;;;;;;;;5093168;28;20051;-74
2023/08/31 01:38:49;;;;;;;8.88;1.90;;;;;;;;;;5093160;28;20079;-74
2023/08/31 01:41:17;;;;;;;3.00;1.90;;;;;;;;;;5094996;28;20058;-74
2023/08/31 01:43:44;;;;;;;4.28;1.50;;;;;;;;;;5092936;28;20494;-73
2023/08/31 01:46:10;;;;;;;4.28;1.40;;;;;;;;;;5101507;28;20044;-73
2023/08/31 01:48:40;;;;;;;2.90;1.60;;;;;;;;;;5076067;28;20135;-74
2023/08/31 01:51:07;;;;;;;6.70;2.00;;;;;;;;;;5091315;28;20495;-71
2023/08/31 01:53:34;;;;;;;4.97;1.67;;;;;;;;;;5093086;28;20044;-71
2023/08/31 01:56:00;;;;;;;6.10;1.75;;;;;;;;;;5074717;28;20048;-70
2023/08/31 01:58:26;;;;;;;3.78;1.80;;;;;;;;;;5093515;28;20055;-71
2023/08/31 02:00:52;;;;;;;4.07;1.55;;;;;;;;;;5073379;28;20078;-72
2023/08/31 02:03:18;;;;;;;4.18;1.45;;;;;;;;;;5090865;28;20102;-72
2023/08/31 02:05:44;;;;;;;3.45;2.10;;;;;;;;;;5090110;28;20471;-72
2023/08/31 02:08:10;;;;;;;5.57;1.60;;;;;;;;;;5091883;28;20503;-72
2023/08/31 02:10:36;;;;;;;6.60;1.63;;;;;;;;;;5093099;28;20043;-73
2023/08/31 02:13:02;;;;;;;6.07;1.52;;;;;;;;;;5087663;28;20056;-72
2023/08/31 02:15:29;;;;;;;2.78;1.52;;;;;;;;;;5090961;28;20490;-71
2023/08/31 02:17:55;;;;;;;4.57;1.55;;;;;;;;;;5090729;28;20040;-71
2023/08/31 02:20:21;;;;;;;4.90;1.80;;;;;;;;;;5075015;28;20043;-72
2023/08/31 02:22:48;;;;;;;2.97;1.63;;;;;;;;;;5102257;28;20104;-72
2023/08/31 02:25:16;;;;;;;4.85;1.52;;;;;;;;;;5075281;28;20056;-72
2023/08/31 02:27:42;;;;;;;3.40;2.05;;;;;;;;;;5092882;28;20376;-72
2023/08/31 02:30:08;;;;;;;3.90;1.60;;;;;;;;;;5089585;28;20090;-72
2023/08/31 02:32:35;;;;;;;2.72;1.33;;;;;;;;;;5093030;28;20094;-71
2023/08/31 02:35:02;;;;;;;4.90;1.50;;;;;;;;;;5080894;28;20055;-72
2023/08/31 02:37:28;;;;;;;5.53;1.85;;;;;;;;;;5078866;28;20058;-71
2023/08/31 02:39:54;;;;;;;5.30;1.75;;;;;;;;;;5092985;28;20028;-72
2023/08/31 02:42:20;;;;;;;6.43;2.03;;;;;;;;;;5093910;28;20071;-72
2023/08/31 02:44:46;;;;;;;3.30;1.70;;;;;;;;;;5089655;28;20506;-72
2023/08/31 02:47:12;;;;;;;2.90;1.52;;;;;;;;;;5093982;28;20090;-72
2023/08/31 02:49:38;;;;;;;6.40;1.67;;;;;;;;;;5073298;28;20075;-72
2023/08/31 02:52:04;;;;;;;5.60;1.60;;;;;;;;;;5075119;28;20079;-72
2023/08/31 02:54:30;;;;;;;2.20;1.40;;;;;;;;;;5072942;28;20052;-72
2023/08/31 02:56:56;;;;;;;3.38;1.60;;;;;;;;;;5074055;28;20044;-72
2023/08/31 02:59:22;;;;;;;6.28;1.70;;;;;;;;;;5091229;28;20059;-72
2023/08/31 03:01:49;;;;;;;3.35;1.73;;;;;;;;;;5090888;28;20075;-72
2023/08/31 03:04:15;;;;;;;3.75;1.60;;;;;;;;;;5073296;28;20047;-71
2023/08/31 03:06:41;;;;;;;3.05;1.58;;;;;;;;;;5092333;28;20044;-72
2023/08/31 03:09:07;;;;;;;3.92;1.50;;;;;;;;;;5087505;28;20080;-71
2023/08/31 03:11:33;;;;;;;2.35;1.35;;;;;;;;;;5058013;28;20574;-72
2023/08/31 03:14:00;;;;;;;2.63;1.52;;;;;;;;;;5090724;28;20086;-71
2023/08/31 03:16:26;;;;;;;3.92;1.60;;;;;;;;;;5090416;28;20089;-72
2023/08/31 03:18:52;;;;;;;3.47;1.55;;;;;;;;;;5073278;28;20461;-72
2023/08/31 03:21:18;;;;;;;3.13;1.40;;;;;;;;;;5073706;28;20050;-72
2023/08/31 03:23:44;;;;;;;2.63;1.48;;;;;;;;;;5092112;28;20048;-72
2023/08/31 03:26:10;;;;;;;4.93;1.58;;;;;;;;;;5088820;28;20134;-72
2023/08/31 03:28:38;;;;;;;6.78;1.30;;;;;;;;;;5085661;28;20090;-72
2023/08/31 03:31:04;;;;;;;2.17;1.65;;;;;;;;;;5091458;28;20048;-72
2023/08/31 03:33:30;;;;;;;5.35;1.48;;;;;;;;;;5091553;28;20044;-72
2023/08/31 03:36:04;;;;;;;3.70;1.50;;;;;;;;;;5090881;28;20036;-71
2023/08/31 03:38:30;;;;;;;4.75;1.52;;;;;;;;;;5090776;28;20299;-72
2023/08/31 03:40:57;;;;;;;3.97;1.40;;;;;;;;;;5072958;28;20089;-71
2023/08/31 03:43:23;;;;;;;2.60;1.42;;;;;;;;;;5090765;28;20048;-72
2023/08/31 03:45:55;;;;;;;4.78;1.63;;;;;;;;;;5090053;28;20044;-73
2023/08/31 03:48:21;;;;;;;3.72;1.55;;;;;;;;;;5074914;28;20052;-72
2023/08/31 03:50:54;;;;;;;5.32;1.52;;;;;;;;;;5073976;28;20036;-71
2023/08/31 03:53:20;;;;;;;2.92;1.55;;;;;;;;;;5092443;28;20071;-72
2023/08/31 03:55:46;;;;;;;2.72;1.65;;;;;;;;;;5073594;28;20391;-72
2023/08/31 03:58:12;;;;;;;2.95;1.50;;;;;;;;;;5091879;28;20390;-71
2023/08/31 04:00:38;;;;;;;6.07;1.80;;;;;;;;;;5089708;28;20479;-72
2023/08/31 04:03:05;;;;;;;3.88;1.60;;;;;;;;;;5071613;28;20402;-72
2023/08/31 04:05:35;;;;;;;3.25;1.52;;;;;;;;;;5092016;28;20048;-72
2023/08/31 04:08:05;;;;;;;6.63;1.50;;;;;;;;;;5091276;28;20044;-72
2023/08/31 04:10:31;;;;;;;4.53;1.42;;;;;;;;;;5092221;28;20048;-73
2023/08/31 04:12:57;;;;;;;4.97;1.77;;;;;;;;;;5096058;28;20135;-72
2023/08/31 04:15:23;;;;;;;3.30;1.42;;;;;;;;;;5073411;28;20056;-73
2023/08/31 04:17:50;;;;;;;3.10;1.70;;;;;;;;;;5089879;28;20036;-72
2023/08/31 04:20:16;;;;;;;4.05;1.67;;;;;;;;;;5088683;28;20048;-72
2023/08/31 04:22:42;;;;;;;2.58;1.50;;;;;;;;;;5088369;28;20123;-72
2023/08/31 04:25:08;;;;;;;3.03;1.52;;;;;;;;;;5072505;28;20043;-71
2023/08/31 04:27:34;;;;;;;4.13;1.75;;;;;;;;;;5088964;28;20040;-72
2023/08/31 04:30:02;;;;;;;3.10;1.67;;;;;;;;;;5089152;28;20507;-73
2023/08/31 04:32:28;;;;;;;3.35;1.60;;;;;;;;;;5072549;28;20052;-74
2023/08/31 04:34:54;;;;;;;6.40;1.80;;;;;;;;;;5089377;28;20047;-74
2023/08/31 04:37:21;;;;;;;4.85;1.70;;;;;;;;;;5087950;28;20040;-74
2023/08/31 04:39:48;;;;;;;4.10;1.70;;;;;;;;;;5086653;28;20048;-73
2023/08/31 04:42:16;;;;;;;1.95;1.30;;;;;;;;;;5071889;28;20056;-73
2023/08/31 04:44:42;;;;;;;3.15;1.52;;;;;;;;;;5090986;28;20055;-74
2023/08/31 04:47:08;;;;;;;4.80;1.92;;;;;;;;;;5089435;28;20131;-73
2023/08/31 04:49:34;;;;;;;5.70;1.60;;;;;;;;;;5070673;28;20498;-73
2023/08/31 04:52:00;;;;;;;2.22;1.20;;;;;;;;;;5089434;28;20044;-74
2023/08/31 04:54:26;;;;;;;5.57;1.30;;;;;;;;;;5070972;28;20097;-73
2023/08/31 04:56:52;;;;;;;3.85;1.50;;;;;;;;;;5089060;28;20119;-74
2023/08/31 04:59:18;;;;;;;2.40;1.20;;;;;;;;;;5074025;28;20059;-74
2023/08/31 05:01:44;;;;;;;3.17;1.40;;;;;;;;;;5087316;28;20032;-74
2023/08/31 05:04:10;;;;;;;2.42;1.40;;;;;;;;;;5088468;28;20058;-73
2023/08/31 05:06:36;;;;;;;3.72;1.50;;;;;;;;;;5071746;28;20047;-73
2023/08/31 05:09:03;;;;;;;1.92;1.40;;;;;;;;;;5093366;28;20399;-74
2023/08/31 05:11:29;;;;;;;5.78;1.50;;;;;;;;;;5085869;28;20507;-74
2023/08/31 05:13:55;;;;;;;1.35;1.20;;;;;;;;;;5091243;28;20079;-74
2023/08/31 05:16:21;;;;;;;4.93;1.70;;;;;;;;;;5091143;28;20384;-74
2023/08/31 05:18:47;;;;;;;12.50;7.85;;;;;;;;;;5093976;28;20487;-73
2023/08/31 05:21:13;;;;;;;2.42;1.40;;;;;;;;;;5071845;28;20048;-72
2023/08/31 05:23:39;;;;;;;3.38;1.45;;;;;;;;;;5091728;28;20147;-71
2023/08/31 05:26:05;;;;;;;1.58;1.40;;;;;;;;;;5089926;28;20368;-71
2023/08/31 05:28:31;;;;;;;2.35;1.30;;;;;;;;;;5074505;28;20429;-71
2023/08/31 05:30:58;;;;;;;2.17;1.20;;;;;;;;;;5089419;28;20036;-71
2023/08/31 05:33:27;;;;;;;4.50;1.10;;;;;;;;;;5088753;28;20047;-72
2023/08/31 05:35:53;;;;;;;1.83;1.20;;;;;;;;;;5073946;28;20052;-72
2023/08/31 05:38:19;;;;;;;1.95;1.30;;;;;;;;;;5093057;28;20048;-72
2023/08/31 05:40:46;;;;;;;2.30;1.30;;;;;;;;;;5091050;28;20040;-72
2023/08/31 05:43:15;;;;;;;5.68;1.35;;;;;;;;;;5073740;28;20052;-71
2023/08/31 05:45:41;;;;;;;2.33;1.30;;;;;;;;;;5075126;28;20078;-72
2023/08/31 05:48:08;;;;;;;2.88;1.30;;;;;;;;;;5094067;28;20040;-71
2023/08/31 05:50:36;;;;;;;1.85;1.27;;;;;;;;;;5074059;28;20047;-72
2023/08/31 05:53:02;;;;;;;3.65;1.30;;;;;;;;;;5075639;28;20052;-72
2023/08/31 05:55:28;;;;;;;4.43;1.30;;;;;;;;;;5094991;28;20043;-71
2023/08/31 05:57:54;;;;;;;3.22;1.58;;;;;;;;;;5076728;28;20502;-71
2023/08/31 06:00:20;;;;;;;2.60;1.40;;;;;;;;;;5089917;28;20044;-71
2023/08/31 06:02:46;;;;;;;2.78;1.33;;;;;;;;;;5077017;28;20479;-70
2023/08/31 06:05:13;;;;;;;2.38;1.25;;;;;;;;;;5092692;28;20048;-71
2023/08/31 06:07:39;;;;;;;1.85;1.30;;;;;;;;;;5093671;28;20044;-71
2023/08/31 06:10:06;;;;;;;2.92;1.40;;;;;;;;;;5093145;28;20052;-71
2023/08/31 06:12:32;;;;;;;3.92;1.70;;;;;;;;;;5074821;28;20070;-72
2023/08/31 06:14:58;;;;;;;4.93;2.00;;;;;;;;;;5091249;28;20055;-72
2023/08/31 06:17:24;;;;;;;3.42;1.73;;;;;;;;;;5088629;28;20040;-71
2023/08/31 06:19:50;;;;;;;2.47;1.40;;;;;;;;;;5092100;28;20080;-71
2023/08/31 06:22:16;;;;;;;3.20;1.40;;;;;;;;;;5093054;28;20433;-72
2023/08/31 06:24:42;;;;;;;5.40;1.55;;;;;;;;;;5074316;28;20094;-71
2023/08/31 06:27:08;;;;;;;2.63;1.35;;;;;;;;;;5075576;28;20056;-72
2023/08/31 06:29:34;;;;;;;3.95;1.30;;;;;;;;;;5073197;28;20040;-72
2023/08/31 06:32:00;;;;;;;2.70;1.38;;;;;;;;;;5065736;28;20534;-72
2023/08/31 06:34:26;;;;;;;3.80;1.48;;;;;;;;;;5069819;28;20052;-71
2023/08/31 06:36:52;;;;;;;4.05;1.42;;;;;;;;;;5072807;28;20043;-73
2023/08/31 06:39:18;;;;;;;3.10;1.23;;;;;;;;;;5088413;28;20457;-72
2023/08/31 06:41:45;;;;;;;2.63;1.30;;;;;;;;;;5082485;28;20044;-73
2023/08/31 06:44:11;;;;;;;3.55;1.38;;;;;;;;;;5084719;28;20044;-73
2023/08/31 06:46:37;;;;;;;1.45;1.20;;;;;;;;;;5089812;28;20060;-72
2023/08/31 06:49:06;;;;;;;1.77;1.20;;;;;;;;;;5088273;28;20044;-72
2023/08/31 06:51:33;;;;;;;3.85;1.40;;;;;;;;;;5087590;28;20051;-72
2023/08/31 06:54:06;;;;;;;3.97;1.63;;;;;;;;;;5086478;28;20072;-73
2023/08/31 06:56:35;;;;;;;6.07;1.95;;;;;;;;;;5103216;28;20050;-71
2023/08/31 06:59:02;;;;;;;2.13;1.25;;;;;;;;;;5076117;28;20051;-72
2023/08/31 07:01:29;;;;;;;1.60;1.10;;;;;;;;;;5086804;28;20487;-73
2023/08/31 07:03:55;;;;;;;1.70;1.50;;;;;;;;;;5090822;28;20040;-72
2023/08/31 07:06:21;;;;;;;3.28;1.55;;;;;;;;;;5073489;28;20052;-72
2023/08/31 07:08:47;;;;;;;3.88;1.60;;;;;;;;;;5071585;28;20046;-72
2023/08/31 07:11:14;;;;;;;2.05;1.50;;;;;;;;;;5088298;28;20051;-72
2023/08/31 07:13:41;;;;;;;3.97;1.40;;;;;;;;;;5073606;28;20056;-72
2023/08/31 07:16:07;;;;;;;2.83;1.48;;;;;;;;;;5075128;28;20487;-73
2023/08/31 07:18:33;;;;;;;2.30;1.40;;;;;;;;;;5080917;28;20075;-72
2023/08/31 07:20:59;;;;;;;1.88;1.40;;;;;;;;;;5089022;28;20078;-72
2023/08/31 07:23:25;;;;;;;2.55;1.35;;;;;;;;;;5067010;28;20048;-73
2023/08/31 07:25:51;;;;;;;2.92;1.60;;;;;;;;;;5089330;28;20036;-73
2023/08/31 07:28:17;;;;;;;8.00;1.85;;;;;;;;;;5092575;28;20028;-72
2023/08/31 07:30:43;;;;;;;5.63;1.80;;;;;;;;;;5086692;28;20036;-72
2023/08/31 07:33:10;;;;;;;6.05;1.98;;;;;;;;;;5073605;28;20075;-72
2023/08/31 07:35:36;;;;;;;4.70;1.88;;;;;;;;;;5074351;28;20369;-72
2023/08/31 07:38:02;;;;;;;2.70;1.70;;;;;;;;;;5084120;28;20040;-72
2023/08/31 07:40:28;;;;;;;3.90;1.52;;;;;;;;;;5067657;28;20048;-72
2023/08/31 07:42:54;;;;;;;4.82;1.67;;;;;;;;;;5084422;28;20036;-72
2023/08/31 07:45:20;;;;;;;4.15;2.00;;;;;;;;;;5073137;28;20073;-73
2023/08/31 07:47:46;;;;;;;2.88;1.63;;;;;;;;;;5073280;28;20052;-72
2023/08/31 07:50:14;;;;;;;4.53;1.50;;;;;;;;;;5090871;28;20052;-73
2023/08/31 07:52:40;;;;;;;7.07;1.80;;;;;;;;;;5090906;28;20076;-72
2023/08/31 07:55:06;;;;;;;2.88;1.73;;;;;;;;;;5073629;28;20406;-73
2023/08/31 07:57:32;;;;;;;4.35;1.40;;;;;;;;;;5093193;28;20425;-73
2023/08/31 07:59:58;;;;;;;1.95;1.70;;;;;;;;;;5081668;28;20127;-72
2023/08/31 08:02:24;;;;;;;1.77;1.27;;;;;;;;;;5082953;28;20123;-72
2023/08/31 08:04:50;;;;;;;1.70;1.40;;;;;;;;;;5073496;28;20186;-72
2023/08/31 08:07:16;;;;;;;2.17;1.63;;;;;;;;;;5090898;28;20123;-72
2023/08/31 08:09:42;;;;;;;2.78;1.70;;;;;;;;;;5090583;28;20039;-75
2023/08/31 08:12:08;;;;;;;3.22;1.30;;;;;;;;;;5071102;28;20101;-74
2023/08/31 08:14:34;;;;;;;2.30;1.38;;;;;;;;;;5090472;28;20509;-75
2023/08/31 08:17:01;;;;;;;2.17;1.45;;;;;;;;;;5073627;28;20134;-74
2023/08/31 08:19:27;;;;;;;1.20;1.10;;;;;;;;;;5084635;28;20052;-73
2023/08/31 08:21:53;;;;;;;1.95;1.45;;;;;;;;;;5069858;28;20562;-76
2023/08/31 08:24:19;;;;;;;2.55;1.42;;;;;;;;;;5092777;28;20048;-76
2023/08/31 08:26:45;;;;;;;1.55;1.40;;;;;;;;;;5091136;28;20123;-76
2023/08/31 08:29:11;;;;;;;1.95;1.50;;;;;;;;;;5089252;28;20040;-73
2023/08/31 08:31:37;;;;;;;2.40;1.50;;;;;;;;;;5067787;28;20040;-74
2023/08/31 08:34:03;;;;;;;2.95;1.40;;;;;;;;;;5086203;28;20486;-74
2023/08/31 08:36:30;;;;;;;1.88;1.40;;;;;;;;;;5089604;28;20488;-75
2023/08/31 08:38:56;;;;;;;3.55;1.52;;;;;;;;;;5089346;28;20040;-74
2023/08/31 08:41:23;;;;;;;2.95;1.45;;;;;;;;;;5088391;28;20085;-74
2023/08/31 08:43:51;;;;;;;2.38;1.45;;;;;;;;;;5090147;28;20128;-74
2023/08/31 08:46:17;;;;;;;4.45;1.50;;;;;;;;;;5084790;28;20123;-74
2023/08/31 08:48:44;;;;;;;2.35;1.40;;;;;;;;;;5087476;28;20040;-74
2023/08/31 08:51:11;;;;;;;3.13;1.40;;;;;;;;;;5071424;28;20052;-74
2023/08/31 08:53:38;;;;;;;5.25;1.80;;;;;;;;;;5068902;28;20040;-74
2023/08/31 08:56:05;;;;;;;7.32;1.73;;;;;;;;;;5090649;28;20093;-74
2023/08/31 08:58:31;;;;;;;6.10;1.70;;;;;;;;;;5073684;28;20074;-75
2023/08/31 09:00:57;;;;;;;5.13;1.75;;;;;;;;;;5089826;28;20062;-74
2023/08/31 09:03:24;;;;;;;3.35;1.60;;;;;;;;;;5090964;28;20040;-74
2023/08/31 09:05:51;;;;;;;2.90;1.70;;;;;;;;;;5090513;28;20089;-74
2023/08/31 09:08:17;;;;;;;4.47;1.90;;;;;;;;;;5088997;28;20605;-74
2023/08/31 09:10:44;;;;;;;2.80;1.40;;;;;;;;;;5089611;28;20130;-74
2023/08/31 09:13:19;;;;;;;2.47;1.60;;;;;;;;;;5063330;28;20117;-74
2023/08/31 09:15:47;;;;;;;2.85;1.65;;;;;;;;;;5087277;28;20093;-75
2023/08/31 09:18:25;;;;;;;6.88;2.28;;;;;;;;;;5090578;28;20044;-74
2023/08/31 09:20:51;;;;;;;2.92;1.60;;;;;;;;;;5085676;28;20035;-75
2023/08/31 09:23:18;;;;;;;4.93;1.77;;;;;;;;;;5089505;28;20044;-74
2023/08/31 09:25:52;;;;;;;3.28;1.83;;;;;;;;;;5088748;28;20040;-74
2023/08/31 09:28:22;;;;;;;3.83;2.17;;;;;;;;;;5089418;28;20087;-76
2023/08/31 09:30:49;;;;;;;2.75;1.60;;;;;;;;;;5069767;28;20047;-74
2023/08/31 09:33:16;;;;;;;4.45;1.50;;;;;;;;;;5087865;28;20122;-74
2023/08/31 09:35:49;;;;;;;5.97;1.60;;;;;;;;;;5070462;28;20445;-75
2023/08/31 09:38:16;;;;;;;4.38;1.52;;;;;;;;;;5066446;28;20059;-74
2023/08/31 09:40:42;;;;;;;4.35;1.67;;;;;;;;;;5091624;28;20044;-74
2023/08/31 09:43:08;;;;;;;4.85;1.90;;;;;;;;;;5090557;28;20047;-74
2023/08/31 09:45:35;;;;;;;4.90;1.83;;;;;;;;;;5071319;28;20039;-74
2023/08/31 09:48:02;;;;;;;7.65;1.90;;;;;;;;;;5070550;28;20397;-74
2023/08/31 09:50:32;;;;;;;2.80;1.70;;;;;;;;;;5070284;28;20048;-74
2023/08/31 09:53:01;;;;;;;3.25;1.58;;;;;;;;;;5087461;28;20503;-74
2023/08/31 09:55:32;;;;;;;3.15;1.50;;;;;;;;;;5072352;28;20070;-74
2023/08/31 09:57:59;;;;;;;4.78;1.70;;;;;;;;;;5094513;28;20426;-76
2023/08/31 10:00:29;;;;;;;3.45;1.60;;;;;;;;;;5072928;28;20043;-76
2023/08/31 10:02:57;;;;;;;5.32;1.70;;;;;;;;;;5092028;28;20035;-75
2023/08/31 10:05:23;;;;;;;3.13;1.33;;;;;;;;;;5069575;28;20054;-75
2023/08/31 10:07:49;;;;;;;6.80;2.08;;;;;;;;;;5092135;28;20066;-75
2023/08/31 10:10:15;;;;;;;5.57;1.67;;;;;;;;;;5092133;28;20097;-75
2023/08/31 10:12:42;;;;;;;4.68;1.73;;;;;;;;;;5071887;28;20052;-74
2023/08/31 10:15:09;;;;;;;3.47;1.60;;;;;;;;;;5090603;28;20043;-76
2023/08/31 10:17:36;;;;;;;3.13;1.80;;;;;;;;;;5086299;28;20043;-76
2023/08/31 10:20:02;;;;;;;2.20;1.70;;;;;;;;;;5074508;28;20130;-76
2023/08/31 10:22:30;;;;;;;4.10;1.58;;;;;;;;;;5091637;28;20067;-74
2023/08/31 10:25:03;;;;;;;3.92;1.45;;;;;;;;;;5090775;28;20044;-74
2023/08/31 10:27:36;;;;;;;2.53;1.30;;;;;;;;;;5092286;28;20044;-74
2023/08/31 10:30:20;;;;;;;4.38;1.50;;;;;;;;;;5100719;28;20054;-75
2023/08/31 10:32:47;;;;;;;4.70;1.75;;;;;;;;;;5075452;28;20052;-75
2023/08/31 10:35:13;;;;;;;2.78;1.52;;;;;;;;;;5091107;28;20043;-77
2023/08/31 10:37:41;;;;;;;1.95;1.48;;;;;;;;;;5073133;28;20060;-73
2023/08/31 10:40:14;;;;;;;2.63;1.70;;;;;;;;;;5074385;28;20133;-75
2023/08/31 10:42:47;;;;;;;4.13;1.80;;;;;;;;;;5070194;28;20179;-73
2023/08/31 10:45:14;;;;;;;4.32;2.00;;;;;;;;;;5088468;28;20043;-73
2023/08/31 10:47:43;;;;;;;2.78;1.70;;;;;;;;;;5092862;28;20047;-73
2023/08/31 10:50:20;;;;;;;5.60;2.15;;;;;;;;;;5090708;28;20126;-73
2023/08/31 10:52:46;;;;;;;4.10;1.70;;;;;;;;;;5072322;28;20049;-73
2023/08/31 10:55:12;;;;;;;6.82;2.05;;;;;;;;;;5098193;28;20430;-73
2023/08/31 10:57:39;;;;;;;7.65;2.30;;;;;;;;;;5093085;28;20040;-73
2023/08/31 11:00:05;;;;;;;3.95;1.90;;;;;;;;;;5089147;28;20036;-73
2023/08/31 11:02:38;;;;;;;3.65;1.88;;;;;;;;;;5066227;28;20059;-73
2023/08/31 11:05:11;;;;;;;3.83;2.05;;;;;;;;;;5089939;28;20389;-73
2023/08/31 11:07:47;;;;;;;3.78;1.63;;;;;;;;;;5090369;28;20066;-73
2023/08/31 11:10:17;;;;;;;4.10;1.80;;;;;;;;;;5076141;28;20054;-73
2023/08/31 11:12:44;;;;;;;2.88;1.80;;;;;;;;;;5071768;28;20131;-73
2023/08/31 11:15:12;;;;;;;6.20;1.88;;;;;;;;;;5088397;28;20055;-73
2023/08/31 11:17:40;;;;;;;5.55;1.67;;;;;;;;;;5074412;28;20048;-74
2023/08/31 11:20:08;;;;;;;5.18;1.60;;;;;;;;;;5089205;28;20039;-74
2023/08/31 11:22:35;;;;;;;3.75;2.10;;;;;;;;;;5089192;28;20055;-74
2023/08/31 11:25:01;;;;;;;5.63;2.47;;;;;;;;;;5070218;28;20429;-73
2023/08/31 11:27:27;;;;;;;4.38;2.10;;;;;;;;;;5092856;28;20138;-74
2023/08/31 11:29:53;;;;;;;3.65;2.00;;;;;;;;;;5068977;28;20058;-74
2023/08/31 11:32:19;;;;;;;4.55;1.77;;;;;;;;;;5083541;28;20513;-74
2023/08/31 11:34:46;;;;;;;3.80;1.95;;;;;;;;;;5069983;28;20048;-74
2023/08/31 11:37:22;;;;;;;4.75;1.95;;;;;;;;;;5082737;28;20055;-74
2023/08/31 11:39:49;;;;;;;7.43;2.22;;;;;;;;;;5084641;28;20051;-75
2023/08/31 11:42:18;;;;;;;12.48;3.28;;;;;;;;;;5093418;28;20527;-75
2023/08/31 11:44:44;;;;;;;7.80;2.00;;;;;;;;;;5089673;28;20058;-75
2023/08/31 11:47:10;;;;;;;6.43;2.42;;;;;;;;;;5091209;28;20059;-76
2023/08/31 11:49:36;;;;;;;4.40;2.10;;;;;;;;;;5067213;28;20044;-75
2023/08/31 11:52:03;;;;;;;5.47;2.00;;;;;;;;;;5068389;28;20044;-75
2023/08/31 11:54:29;;;;;;;4.07;1.80;;;;;;;;;;5088709;28;20051;-74
2023/08/31 11:56:55;;;;;;;5.60;2.15;;;;;;;;;;5081401;28;20090;-75
2023/08/31 11:59:22;;;;;;;4.82;1.83;;;;;;;;;;5068210;28;20047;-82
2023/08/31 12:01:49;;;;;;;5.68;1.90;;;;;;;;;;5070174;28;20044;-74
2023/08/31 12:04:22;;;;;;;5.47;2.00;;;;;;;;;;5088494;28;20048;-74
2023/08/31 12:06:50;;;;;;;7.03;1.75;;;;;;;;;;5072439;28;20111;-75
2023/08/31 12:09:16;;;;;;;5.90;2.08;;;;;;;;;;5090577;28;20044;-75
2023/08/31 12:11:42;;;;;;;3.67;2.00;;;;;;;;;;5070281;28;20087;-75
2023/08/31 12:14:28;;;;;;;3.00;1.63;;;;;;;;;;5088962;28;20052;-75
2023/08/31 12:17:03;;;;;;;2.42;1.70;;;;;;;;;;5068886;28;20036;-75
2023/08/31 12:19:29;;;;;;;6.40;2.53;;;;;;;;;;5087357;28;20513;-75
2023/08/31 12:21:56;;;;;;;3.63;1.73;;;;;;;;;;5090898;28;20076;-74
2023/08/31 12:24:23;;;;;;;3.95;1.90;;;;;;;;;;5091673;28;20048;-74
2023/08/31 12:26:49;;;;;;;6.28;2.15;;;;;;;;;;5073637;28;20530;-74
2023/08/31 12:29:15;;;;;;;6.32;2.00;;;;;;;;;;5090341;28;20098;-75
2023/08/31 12:31:41;;;;;;;5.50;1.88;;;;;;;;;;5073204;28;20117;-75
2023/08/31 12:34:07;;;;;;;8.50;2.28;;;;;;;;;;5089840;28;20097;-76
2023/08/31 12:36:33;;;;;;;7.50;2.25;;;;;;;;;;5089561;28;20051;-75
2023/08/31 12:39:01;;;;;;;7.22;2.30;;;;;;;;;;5071830;28;20039;-75
2023/08/31 12:41:30;;;;;;;5.57;2.17;;;;;;;;;;5090581;28;20059;-75
2023/08/31 12:43:57;;;;;;;6.18;2.30;;;;;;;;;;5069184;28;20051;-74
2023/08/31 12:46:23;;;;;;;5.43;2.28;;;;;;;;;;5090286;28;20101;-75
2023/08/31 12:48:49;;;;;;;3.85;1.70;;;;;;;;;;5088207;28;20040;-74
2023/08/31 12:51:16;;;;;;;4.68;1.80;;;;;;;;;;5074890;28;20515;-75
2023/08/31 12:53:42;;;;;;;4.60;1.85;;;;;;;;;;5085756;28;20048;-74
2023/08/31 12:56:08;;;;;;;3.53;1.75;;;;;;;;;;5066998;28;20044;-74
2023/08/31 12:58:34;;;;;;;3.75;1.90;;;;;;;;;;5072026;28;20044;-74
2023/08/31 13:01:00;;;;;;;9.02;2.53;;;;;;;;;;5090474;28;20052;-74
2023/08/31 13:03:27;;;;;;;6.88;2.10;;;;;;;;;;5072192;28;20471;-75
2023/08/31 13:05:53;;;;;;;6.32;2.45;;;;;;;;;;5090312;28;20059;-74
2023/08/31 13:08:19;;;;;;;6.13;2.10;;;;;;;;;;5088184;28;20136;-75
2023/08/31 13:10:52;;;;;;;7.93;2.40;;;;;;;;;;5089348;28;20488;-75
2023/08/31 13:13:18;;;;;;;5.10;1.83;;;;;;;;;;5087955;28;20402;-74
2023/08/31 13:15:46;;;;;;;5.55;1.92;;;;;;;;;;5072186;28;20044;-75
2023/08/31 13:18:12;;;;;;;7.72;2.15;;;;;;;;;;5089985;28;20170;-75
2023/08/31 13:20:38;;;;;;;5.47;1.95;;;;;;;;;;5089646;28;20064;-75
2023/08/31 13:23:04;;;;;;;5.30;2.30;;;;;;;;;;5071958;28;20044;-75
2023/08/31 13:25:30;;;;;;;4.15;2.05;;;;;;;;;;5090234;28;20648;-75
2023/08/31 13:27:56;;;;;;;5.82;1.92;;;;;;;;;;5088964;28;20043;-75
2023/08/31 13:30:22;;;;;;;3.78;1.80;;;;;;;;;;5090830;28;20487;-75
2023/08/31 13:32:48;;;;;;;5.10;1.60;;;;;;;;;;5077112;28;20047;-74
2023/08/31 13:35:15;;;;;;;6.50;2.17;;;;;;;;;;5093348;28;20502;-74
2023/08/31 13:37:41;;;;;;;8.30;2.13;;;;;;;;;;5093415;28;20052;-75
2023/08/31 13:40:10;;;;;;;6.10;2.30;;;;;;;;;;5074902;28;20044;-75
2023/08/31 13:42:37;;;;;;;4.07;1.80;;;;;;;;;;5086597;28;20040;-75
2023/08/31 13:45:05;;;;;;;2.88;1.85;;;;;;;;;;5093717;28;20036;-75
2023/08/31 13:47:31;;;;;;;7.05;2.45;;;;;;;;;;5072771;28;20419;-75
2023/08/31 13:49:57;;;;;;;6.47;2.17;;;;;;;;;;5091262;28;20118;-74
2023/08/31 13:52:24;;;;;;;6.43;2.30;;;;;;;;;;5088806;28;20067;-75
2023/08/31 13:54:50;;;;;;;6.10;2.33;;;;;;;;;;5075211;28;20079;-75
2023/08/31 13:57:17;;;;;;;6.53;1.95;;;;;;;;;;5094638;28;20050;-75
2023/08/31 13:59:46;;;;;;;4.03;2.03;;;;;;;;;;5091384;28;20132;-75
2023/08/31 14:02:12;;;;;;;3.85;1.73;;;;;;;;;;5091171;28;20457;-74
2023/08/31 14:04:38;;;;;;;4.25;1.80;;;;;;;;;;5092876;28;20390;-75
2023/08/31 14:07:04;;;;;;;1.58;1.48;;;;;;;;;;5090797;28;20540;-75
2023/08/31 14:09:31;;;;;;;6.65;2.10;;;;;;;;;;5074479;28;20059;-75
2023/08/31 14:11:57;;;;;;;4.20;2.17;;;;;;;;;;5091568;28;20056;-76
2023/08/31 14:14:23;;;;;;;4.40;1.80;;;;;;;;;;5093534;28;20560;-76
2023/08/31 14:16:50;;;;;;;3.85;2.25;;;;;;;;;;5073761;28;20043;-76
2023/08/31 14:19:16;;;;;;;3.03;1.90;;;;;;;;;;5091175;28;20048;-76
2023/08/31 14:21:42;;;;;;;2.70;1.95;;;;;;;;;;5092662;28;20085;-76
2023/08/31 14:24:08;;;;;;;2.50;1.70;;;;;;;;;;5089565;28;20485;-76
2023/08/31 14:26:34;;;;;;;4.82;1.88;;;;;;;;;;5092906;28;20036;-75
2023/08/31 14:29:00;;;;;;;4.95;1.80;;;;;;;;;;5075731;28;20050;-76
2023/08/31 14:31:26;;;;;;;3.17;1.60;;;;;;;;;;5095042;28;20450;-77
2023/08/31 14:33:53;;;;;;;2.88;1.88;;;;;;;;;;5092286;28;20574;-76
2023/08/31 14:36:20;;;;;;;3.75;1.70;;;;;;;;;;5074340;28;20498;-76
2023/08/31 14:38:46;;;;;;;6.80;1.95;;;;;;;;;;5074205;28;20080;-77
2023/08/31 14:41:12;;;;;;;4.68;1.90;;;;;;;;;;5074372;28;20073;-76
2023/08/31 14:43:38;;;;;;;4.13;1.83;;;;;;;;;;5074471;28;20043;-76